createdAt,value
2023-04-16T00:00:13.899Z,0.0000
2023-04-16T00:01:14.507Z,0.0000
2023-04-16T00:02:15.161Z,0.0000
2023-04-16T00:03:15.956Z,0.0000
2023-04-16T00:04:17.101Z,0.0000
2023-04-16T00:05:18.113Z,0.0000
2023-04-16T00:06:18.687Z,0.0000
2023-04-16T00:07:19.257Z,0.0000
2023-04-16T00:08:19.885Z,0.0000
2023-04-16T00:09:20.465Z,0.0000
2023-04-16T00:10:20.962Z,0.0000
2023-04-16T00:11:21.573Z,0.0000
2023-04-16T00:12:22.165Z,0.0000
2023-04-16T00:13:22.753Z,0.0000
2023-04-16T00:14:23.278Z,0.0000
2023-04-16T00:15:23.807Z,0.0000
2023-04-16T00:16:24.536Z,0.0000
2023-04-16T00:17:25.131Z,0.0000
2023-04-16T00:18:25.703Z,0.0000
2023-04-16T00:19:26.231Z,0.0000
2023-04-16T00:20:26.835Z,0.0000
2023-04-16T00:21:27.416Z,0.0000
2023-04-16T00:22:28.016Z,0.0000
2023-04-16T00:23:28.580Z,0.0000
2023-04-16T00:24:29.252Z,0.0000
2023-04-16T00:25:29.869Z,0.0000
2023-04-16T00:26:30.469Z,0.0000
2023-04-16T00:27:31.060Z,0.0000
2023-04-16T00:28:31.632Z,0.0000
2023-04-16T00:29:32.229Z,0.0000
2023-04-16T00:30:32.750Z,0.0000
2023-04-16T00:31:33.232Z,0.0000
2023-04-16T00:32:33.833Z,0.0000
2023-04-16T00:33:34.392Z,0.0000
2023-04-16T00:34:34.916Z,0.0000
2023-04-16T00:35:35.470Z,0.0000
2023-04-16T00:36:35.965Z,0.0000
2023-04-16T00:37:36.573Z,0.0000
2023-04-16T00:38:37.077Z,0.0000
2023-04-16T00:39:37.673Z,0.0000
2023-04-16T00:40:38.275Z,0.0000
2023-04-16T00:41:38.782Z,0.0000
2023-04-16T00:42:39.424Z,0.0000
2023-04-16T00:43:40.232Z,0.0000
2023-04-16T00:44:40.805Z,0.0000
2023-04-16T00:45:41.350Z,0.0000
2023-04-16T00:46:41.981Z,0.0000
2023-04-16T00:47:42.668Z,0.0000
2023-04-16T00:48:43.266Z,0.0000
2023-04-16T00:49:43.827Z,0.0000
2023-04-16T00:50:44.392Z,0.0000
2023-04-16T00:51:44.886Z,0.0000
2023-04-16T00:52:45.508Z,0.0000
2023-04-16T00:53:46.060Z,0.0000
2023-04-16T00:54:46.604Z,0.0000
2023-04-16T00:55:47.167Z,0.0000
2023-04-16T00:56:47.804Z,0.0000
2023-04-16T00:57:48.345Z,0.0000
2023-04-16T00:58:48.965Z,0.0000
2023-04-16T00:59:49.556Z,0.0000
2023-04-16T01:00:50.117Z,0.0000
2023-04-16T01:01:50.969Z,0.0000
2023-04-16T01:02:51.815Z,0.0000
2023-04-16T01:03:52.713Z,0.0000
2023-04-16T01:04:53.597Z,0.0000
2023-04-16T01:05:54.147Z,0.0000
2023-04-16T01:06:54.694Z,0.0000
2023-04-16T01:07:55.308Z,0.0000
2023-04-16T01:08:55.853Z,0.0000
2023-04-16T01:09:56.460Z,0.0000
2023-04-16T01:10:56.998Z,0.0000
2023-04-16T01:11:57.601Z,0.0000
2023-04-16T01:12:58.266Z,0.0000
2023-04-16T01:13:58.815Z,0.0000
2023-04-16T01:14:59.351Z,0.0000
2023-04-16T01:16:00.018Z,0.0000
2023-04-16T01:17:00.635Z,0.0000
2023-04-16T01:18:01.249Z,0.0000
2023-04-16T01:19:01.836Z,0.0000
2023-04-16T01:20:02.422Z,0.0000
2023-04-16T01:21:03.041Z,0.0000
2023-04-16T01:22:03.573Z,0.0000
2023-04-16T01:23:04.161Z,0.0000
2023-04-16T01:24:04.705Z,0.0000
2023-04-16T01:25:05.288Z,0.0000
2023-04-16T01:26:05.845Z,0.0000
2023-04-16T01:27:06.420Z,0.0000
2023-04-16T01:28:06.973Z,0.0000
2023-04-16T01:29:07.832Z,0.0000
2023-04-16T01:30:08.574Z,0.0000
2023-04-16T01:31:09.132Z,0.0000
2023-04-16T01:32:09.699Z,0.0000
2023-04-16T01:33:10.275Z,0.0000
2023-04-16T01:34:10.822Z,0.0000
2023-04-16T01:35:11.335Z,0.0000
2023-04-16T01:36:11.939Z,0.0000
2023-04-16T01:37:12.489Z,0.0000
2023-04-16T01:38:13.096Z,0.0000
2023-04-16T01:39:13.668Z,0.0000
2023-04-16T01:40:14.222Z,0.0000
2023-04-16T01:41:14.714Z,0.0000
2023-04-16T01:42:15.258Z,0.0000
2023-04-16T01:43:15.881Z,0.0000
2023-04-16T01:44:16.432Z,0.0000
2023-04-16T01:45:16.973Z,0.0000
2023-04-16T01:46:17.520Z,0.0000
2023-04-16T01:47:18.076Z,0.0000
2023-04-16T01:48:18.645Z,0.0000
2023-04-16T01:49:19.197Z,0.0000
2023-04-16T01:50:19.747Z,0.0000
2023-04-16T01:51:20.353Z,0.0000
2023-04-16T01:52:20.901Z,0.0000
2023-04-16T01:53:21.518Z,0.0000
2023-04-16T01:54:22.087Z,0.0000
2023-04-16T01:55:22.629Z,0.0000
2023-04-16T01:56:23.220Z,0.0000
2023-04-16T01:57:23.768Z,0.0000
2023-04-16T01:58:24.427Z,0.0000
2023-04-16T01:59:25.014Z,0.0000
2023-04-16T02:00:25.582Z,0.0000
2023-04-16T02:01:26.176Z,0.0000
2023-04-16T02:02:26.962Z,0.0000
2023-04-16T02:03:27.739Z,0.0000
2023-04-16T02:04:28.398Z,0.0000
2023-04-16T02:05:28.955Z,0.0000
2023-04-16T02:06:29.607Z,0.0000
2023-04-16T02:07:30.186Z,0.0000
2023-04-16T02:08:30.872Z,0.0000
2023-04-16T02:09:31.477Z,0.0000
2023-04-16T02:10:32.086Z,0.0000
2023-04-16T02:11:32.716Z,0.0000
2023-04-16T02:12:33.332Z,0.0000
2023-04-16T02:13:33.981Z,0.0000
2023-04-16T02:14:34.561Z,0.0000
2023-04-16T02:15:35.149Z,0.0000
2023-04-16T02:16:35.974Z,0.0000
2023-04-16T02:17:36.648Z,0.0000
2023-04-16T02:18:37.262Z,0.0000
2023-04-16T02:19:37.883Z,0.0000
2023-04-16T02:20:38.542Z,0.0000
2023-04-16T02:21:39.228Z,0.0000
2023-04-16T02:22:39.791Z,0.0000
2023-04-16T02:23:40.497Z,0.0000
2023-04-16T02:24:41.214Z,0.0000
2023-04-16T02:25:41.834Z,0.0000
2023-04-16T02:26:42.444Z,0.0000
2023-04-16T02:27:43.177Z,0.0000
2023-04-16T02:28:43.853Z,0.0000
2023-04-16T02:29:44.485Z,0.0000
2023-04-16T02:30:45.120Z,0.0000
2023-04-16T02:31:45.811Z,0.0000
2023-04-16T02:32:46.550Z,0.0000
2023-04-16T02:33:47.096Z,0.0000
2023-04-16T02:34:47.874Z,0.0000
2023-04-16T02:35:48.443Z,0.0000
2023-04-16T02:36:49.153Z,0.0000
2023-04-16T02:37:49.753Z,0.0000
2023-04-16T02:38:50.427Z,0.0000
2023-04-16T02:39:51.138Z,0.0000
2023-04-16T02:40:51.766Z,0.0000
2023-04-16T02:41:52.374Z,0.0000
2023-04-16T02:42:52.939Z,0.0000
2023-04-16T02:43:53.509Z,0.0000
2023-04-16T02:44:54.220Z,0.0000
2023-04-16T02:45:55.344Z,0.0000
2023-04-16T02:46:55.969Z,0.0000
2023-04-16T02:47:56.626Z,0.0000
2023-04-16T02:48:57.337Z,0.0000
2023-04-16T02:49:57.953Z,0.0000
2023-04-16T02:50:58.672Z,0.0000
2023-04-16T02:51:59.320Z,0.0000
2023-04-16T02:52:59.936Z,0.0000
2023-04-16T02:54:00.596Z,0.0000
2023-04-16T02:55:01.205Z,0.0000
2023-04-16T02:56:01.886Z,0.0000
2023-04-16T02:57:02.573Z,0.0000
2023-04-16T02:58:03.178Z,0.0000
2023-04-16T02:59:03.842Z,0.0000
2023-04-16T03:00:04.470Z,0.0000
2023-04-16T03:01:05.161Z,0.0000
2023-04-16T03:02:05.798Z,0.0000
2023-04-16T03:03:06.398Z,0.0000
2023-04-16T03:04:07.073Z,0.0000
2023-04-16T03:05:07.712Z,0.0000
2023-04-16T03:06:08.399Z,0.0000
2023-04-16T03:07:09.005Z,0.0000
2023-04-16T03:08:09.604Z,0.0000
2023-04-16T03:09:10.923Z,0.0000
2023-04-16T03:10:11.898Z,0.0000
2023-04-16T03:11:12.523Z,0.0000
2023-04-16T03:12:13.134Z,0.0000
2023-04-16T03:13:13.755Z,0.0000
2023-04-16T03:14:14.367Z,0.0000
2023-04-16T03:15:15.009Z,0.0000
2023-04-16T03:16:15.794Z,0.0000
2023-04-16T03:17:16.570Z,0.0000
2023-04-16T03:18:17.193Z,0.0000
2023-04-16T03:19:17.832Z,0.0000
2023-04-16T03:20:18.464Z,0.0000
2023-04-16T03:21:19.046Z,0.0000
2023-04-16T03:22:20.157Z,0.0000
2023-04-16T03:23:21.022Z,0.0000
2023-04-16T03:24:21.625Z,0.0000
2023-04-16T03:25:22.292Z,0.0000
2023-04-16T03:26:22.874Z,0.0000
2023-04-16T03:27:23.549Z,0.0000
2023-04-16T03:28:24.162Z,0.0000
2023-04-16T03:29:24.777Z,0.0000
2023-04-16T03:30:25.411Z,0.0000
2023-04-16T03:31:26.089Z,0.0000
2023-04-16T03:32:26.772Z,0.0000
2023-04-16T03:33:27.418Z,0.0000
2023-04-16T03:34:28.121Z,0.0000
2023-04-16T03:35:28.758Z,0.0000
2023-04-16T03:36:29.402Z,0.0000
2023-04-16T03:37:29.998Z,0.0000
2023-04-16T03:38:30.584Z,0.0000
2023-04-16T03:39:31.217Z,0.0000
2023-04-16T03:40:31.840Z,0.0000
2023-04-16T03:41:32.487Z,0.0000
2023-04-16T03:42:33.070Z,0.0000
2023-04-16T03:43:33.682Z,0.0000
2023-04-16T03:44:34.267Z,0.0000
2023-04-16T03:45:34.864Z,0.0000
2023-04-16T03:46:35.481Z,0.0000
2023-04-16T03:47:36.147Z,0.0000
2023-04-16T03:48:36.774Z,0.0000
2023-04-16T03:49:37.488Z,0.0000
2023-04-16T03:50:38.116Z,0.0000
2023-04-16T03:51:38.696Z,0.0000
2023-04-16T03:52:39.323Z,0.0000
2023-04-16T03:53:39.959Z,0.0000
2023-04-16T03:54:40.626Z,0.0000
2023-04-16T03:55:41.251Z,0.0000
2023-04-16T03:56:41.852Z,0.0000
2023-04-16T03:57:42.481Z,0.0000
2023-04-16T03:58:43.118Z,0.0000
2023-04-16T03:59:43.780Z,0.0000
2023-04-16T04:00:44.431Z,0.0000
2023-04-16T04:01:45.058Z,0.0000
2023-04-16T04:02:45.812Z,0.0000
2023-04-16T04:03:46.740Z,0.0000
2023-04-16T04:04:47.838Z,0.0000
2023-04-16T04:05:48.528Z,0.0000
2023-04-16T04:06:49.168Z,0.0000
2023-04-16T04:07:49.747Z,0.0000
2023-04-16T04:08:50.366Z,0.0000
2023-04-16T04:09:51.045Z,0.0000
2023-04-16T04:10:51.644Z,0.1304
2023-04-16T04:11:52.331Z,3.0000
2023-04-16T04:12:52.942Z,3.0000
2023-04-16T04:13:53.587Z,2.6522
2023-04-16T04:14:54.268Z,2.2609
2023-04-16T04:15:54.907Z,5.9565
2023-04-16T04:16:55.567Z,5.5217
2023-04-16T04:17:56.249Z,3.7826
2023-04-16T04:18:56.893Z,9.0000
2023-04-16T04:20:01.251Z,9.4348
2023-04-16T04:21:00.153Z,10.1818
2023-04-16T04:22:00.785Z,14.1739
2023-04-16T04:23:01.368Z,19.3478
2023-04-16T04:24:02.051Z,26.4783
2023-04-16T04:25:02.886Z,27.8696
2023-04-16T04:26:03.527Z,24.8696
2023-04-16T04:27:04.184Z,32.3913
2023-04-16T04:28:04.898Z,40.6957
2023-04-16T04:29:05.567Z,44.9565
2023-04-16T04:30:06.218Z,46.1739
2023-04-16T04:31:06.845Z,47.2174
2023-04-16T04:32:07.596Z,49.9565
2023-04-16T04:33:08.546Z,47.0435
2023-04-16T04:34:09.185Z,36.8696
2023-04-16T04:35:09.856Z,36.6957
2023-04-16T04:36:10.519Z,41.6522
2023-04-16T04:37:11.185Z,47.0435
2023-04-16T04:38:13.180Z,55.8696
2023-04-16T04:39:12.859Z,54.9545
2023-04-16T04:40:13.556Z,79.3913
2023-04-16T04:41:14.244Z,98.6957
2023-04-16T04:42:14.839Z,106.5217
2023-04-16T04:43:15.493Z,95.2174
2023-04-16T04:44:16.172Z,77.9565
2023-04-16T04:45:16.857Z,91.1739
2023-04-16T04:46:17.524Z,121.9130
2023-04-16T04:47:18.175Z,165.2609
2023-04-16T04:48:18.893Z,143.6956
2023-04-16T04:49:19.498Z,129.4783
2023-04-16T04:50:20.190Z,131.9565
2023-04-16T04:51:20.880Z,153.1739
2023-04-16T04:52:21.473Z,187.7826
2023-04-16T04:53:22.101Z,180.7826
2023-04-16T04:54:22.678Z,180.6956
2023-04-16T04:55:23.453Z,196.3478
2023-04-16T04:56:24.105Z,259.0000
2023-04-16T04:57:24.837Z,234.0435
2023-04-16T04:58:25.413Z,202.3913
2023-04-16T04:59:26.088Z,135.6956
2023-04-16T05:00:26.744Z,116.6957
2023-04-16T05:01:27.479Z,154.6956
2023-04-16T05:02:28.175Z,198.6087
2023-04-16T05:03:28.889Z,267.8261
2023-04-16T05:04:29.546Z,289.0435
2023-04-16T05:05:30.180Z,336.0869
2023-04-16T05:06:30.946Z,420.7826
2023-04-16T05:07:31.558Z,513.5217
2023-04-16T05:08:32.186Z,693.3478
2023-04-16T05:09:32.824Z,759.6957
2023-04-16T05:10:33.420Z,782.0435
2023-04-16T05:11:34.079Z,826.0435
2023-04-16T05:12:34.671Z,727.0435
2023-04-16T05:13:35.315Z,637.4348
2023-04-16T05:14:35.964Z,753.3478
2023-04-16T05:15:36.567Z,794.6522
2023-04-16T05:16:37.344Z,641.9565
2023-04-16T05:17:37.958Z,447.7826
2023-04-16T05:18:38.596Z,399.5652
2023-04-16T05:19:39.197Z,423.9131
2023-04-16T05:20:39.836Z,448.9565
2023-04-16T05:21:40.519Z,567.6522
2023-04-16T05:22:41.169Z,622.9130
2023-04-16T05:23:41.817Z,832.0000
2023-04-16T05:24:42.472Z,1210.8695
2023-04-16T05:25:43.129Z,1151.5652
2023-04-16T05:26:43.833Z,780.2609
2023-04-16T05:27:44.460Z,590.6087
2023-04-16T05:28:45.064Z,605.0435
2023-04-16T05:29:45.787Z,681.1739
2023-04-16T05:30:46.410Z,704.7826
2023-04-16T05:31:47.172Z,832.7826
2023-04-16T05:32:47.824Z,1204.5652
2023-04-16T05:33:48.394Z,1279.4783
2023-04-16T05:34:49.073Z,1224.7391
2023-04-16T05:35:49.719Z,1164.0869
2023-04-16T05:36:50.439Z,743.7826
2023-04-16T05:37:51.041Z,661.3043
2023-04-16T05:38:51.743Z,742.2174
2023-04-16T05:39:52.580Z,834.6957
2023-04-16T05:40:53.238Z,803.1304
2023-04-16T05:41:53.852Z,827.0435
2023-04-16T05:42:54.639Z,796.5217
2023-04-16T05:43:55.332Z,803.4348
2023-04-16T05:44:56.038Z,1014.1304
2023-04-16T05:45:56.837Z,1160.3043
2023-04-16T05:46:57.538Z,1129.7391
2023-04-16T05:47:58.180Z,1014.3478
2023-04-16T05:48:58.832Z,933.2174
2023-04-16T05:49:59.411Z,959.9565
2023-04-16T05:51:00.053Z,1010.3478
2023-04-16T05:52:00.658Z,1059.4348
2023-04-16T05:53:01.345Z,948.6087
2023-04-16T05:54:02.042Z,829.8261
2023-04-16T05:55:02.646Z,785.4783
2023-04-16T05:56:03.328Z,771.0435
2023-04-16T05:57:03.949Z,856.4783
2023-04-16T05:58:04.538Z,994.3913
2023-04-16T05:59:05.237Z,1006.5652
2023-04-16T06:00:05.870Z,1012.3913
2023-04-16T06:01:06.477Z,999.4348
2023-04-16T06:02:07.198Z,869.1739
2023-04-16T06:03:08.030Z,854.8261
2023-04-16T06:04:08.996Z,1040.8260
2023-04-16T06:05:09.702Z,1170.5217
2023-04-16T06:06:10.296Z,1276.6957
2023-04-16T06:07:10.933Z,1449.8695
2023-04-16T06:08:11.607Z,1451.8695
2023-04-16T06:09:12.317Z,1516.8260
2023-04-16T06:10:12.970Z,1488.6957
2023-04-16T06:11:13.587Z,1437.3478
2023-04-16T06:12:14.270Z,1252.3043
2023-04-16T06:13:14.851Z,1313.0000
2023-04-16T06:14:15.500Z,1506.6957
2023-04-16T06:15:16.194Z,1614.1740
2023-04-16T06:16:16.883Z,1428.9131
2023-04-16T06:17:17.618Z,1409.2174
2023-04-16T06:18:18.250Z,1444.2174
2023-04-16T06:19:18.986Z,1835.4348
2023-04-16T06:20:19.621Z,1981.4783
2023-04-16T06:21:20.232Z,1998.5652
2023-04-16T06:22:20.918Z,2441.0869
2023-04-16T06:23:21.564Z,3709.3479
2023-04-16T06:24:22.172Z,4346.9131
2023-04-16T06:25:22.863Z,3949.6521
2023-04-16T06:26:23.482Z,3181.7390
2023-04-16T06:27:24.203Z,3208.6956
2023-04-16T06:28:24.847Z,3861.1304
2023-04-16T06:29:33.717Z,4538.9131
2023-04-16T06:30:26.891Z,4723.9521
2023-04-16T06:31:27.596Z,5497.3911
2023-04-16T06:32:28.479Z,5520.1304
2023-04-16T06:33:29.234Z,5939.9565
2023-04-16T06:34:29.887Z,6389.6958
2023-04-16T06:35:30.518Z,6131.2173
2023-04-16T06:36:31.213Z,5263.1304
2023-04-16T06:37:31.863Z,4950.5654
2023-04-16T06:38:32.493Z,4321.0000
2023-04-16T06:39:33.432Z,5035.4780
2023-04-16T06:40:34.088Z,5040.4346
2023-04-16T06:41:34.750Z,4726.2173
2023-04-16T06:42:35.418Z,6086.1304
2023-04-16T06:43:36.053Z,6444.3477
2023-04-16T06:44:36.644Z,6183.3477
2023-04-16T06:45:37.270Z,6723.1738
2023-04-16T06:46:37.994Z,6495.0869
2023-04-16T06:47:38.759Z,6132.3477
2023-04-16T06:48:39.384Z,5726.2173
2023-04-16T06:49:39.977Z,5807.4346
2023-04-16T06:50:40.600Z,6217.6089
2023-04-16T06:51:41.207Z,5875.5220
2023-04-16T06:52:41.952Z,5093.6089
2023-04-16T06:53:42.584Z,4548.8262
2023-04-16T06:54:43.345Z,5590.9131
2023-04-16T06:55:43.993Z,5864.9565
2023-04-16T06:56:44.750Z,5218.9565
2023-04-16T06:57:45.475Z,4298.5654
2023-04-16T06:58:46.162Z,3110.9565
2023-04-16T06:59:46.834Z,2783.6956
2023-04-16T07:00:47.693Z,3317.4783
2023-04-16T07:01:48.534Z,4438.1304
2023-04-16T07:02:49.391Z,4986.0000
2023-04-16T07:03:50.322Z,5294.0000
2023-04-16T07:04:51.513Z,6330.8696
2023-04-16T07:05:52.174Z,6329.6523
2023-04-16T07:06:52.899Z,6501.0435
2023-04-16T07:07:53.635Z,7028.7827
2023-04-16T07:08:54.384Z,7908.0435
2023-04-16T07:09:55.087Z,6652.5654
2023-04-16T07:10:55.823Z,4798.1304
2023-04-16T07:11:56.609Z,4497.9131
2023-04-16T07:12:57.399Z,4163.1304
2023-04-16T07:13:58.088Z,3832.0000
2023-04-16T07:14:58.761Z,3970.6956
2023-04-16T07:15:59.461Z,4333.0000
2023-04-16T07:17:00.129Z,4732.5654
2023-04-16T07:18:00.855Z,4152.6958
2023-04-16T07:19:01.576Z,3979.4783
2023-04-16T07:20:02.210Z,4550.5220
2023-04-16T07:21:02.897Z,3660.0869
2023-04-16T07:22:03.835Z,2720.7827
2023-04-16T07:23:04.539Z,3119.1738
2023-04-16T07:24:05.256Z,4327.7393
2023-04-16T07:25:05.865Z,4787.9565
2023-04-16T07:26:06.473Z,5484.5654
2023-04-16T07:27:07.135Z,5878.4780
2023-04-16T07:28:07.827Z,6165.6523
2023-04-16T07:29:08.800Z,6788.8696
2023-04-16T07:30:09.791Z,6699.2607
2023-04-16T07:31:10.452Z,5546.2173
2023-04-16T07:32:12.445Z,5516.9565
2023-04-16T07:33:12.153Z,5159.3184
2023-04-16T07:34:12.933Z,5053.6523
2023-04-16T07:35:13.593Z,5080.6523
2023-04-16T07:36:14.259Z,3988.9131
2023-04-16T07:37:14.927Z,3387.1304
2023-04-16T07:38:15.714Z,5157.6523
2023-04-16T07:39:16.438Z,6495.3911
2023-04-16T07:40:17.175Z,5989.3477
2023-04-16T07:41:17.872Z,5689.8262
2023-04-16T07:42:18.550Z,5748.4346
2023-04-16T07:43:19.357Z,5524.1304
2023-04-16T07:44:20.088Z,4787.7827
2023-04-16T07:45:20.774Z,4476.2607
2023-04-16T07:46:21.853Z,6103.0869
2023-04-16T07:47:22.885Z,6032.6523
2023-04-16T07:48:23.674Z,5407.8696
2023-04-16T07:49:24.390Z,5971.6958
2023-04-16T07:50:25.083Z,6146.4346
2023-04-16T07:51:25.799Z,6691.8262
2023-04-16T07:52:26.418Z,7421.2607
2023-04-16T07:53:27.184Z,7353.4780
2023-04-16T07:54:29.084Z,5781.4780
2023-04-16T07:55:30.063Z,6615.3911
2023-04-16T07:56:30.797Z,7912.5654
2023-04-16T07:57:31.492Z,6451.4346
2023-04-16T07:58:32.283Z,7608.4346
2023-04-16T07:59:32.996Z,9022.0000
2023-04-16T08:00:33.707Z,7116.7827
2023-04-16T08:01:34.403Z,5661.6958
2023-04-16T08:02:35.118Z,6822.5654
2023-04-16T08:03:36.348Z,7518.3042
2023-04-16T08:04:37.256Z,5559.4346
2023-04-16T08:05:38.280Z,5351.6958
2023-04-16T08:06:39.039Z,5126.8696
2023-04-16T08:07:39.696Z,5784.5220
2023-04-16T08:08:40.349Z,7132.9131
2023-04-16T08:09:41.115Z,6511.5220
2023-04-16T08:10:41.719Z,6198.6958
2023-04-16T08:11:42.366Z,7123.8696
2023-04-16T08:12:42.994Z,6707.4346
2023-04-16T08:13:43.650Z,5984.7827
2023-04-16T08:14:44.323Z,5057.8696
2023-04-16T08:15:45.136Z,5403.6089
2023-04-16T08:16:45.944Z,6308.8696
2023-04-16T08:17:46.636Z,6507.0000
2023-04-16T08:18:47.369Z,7713.2173
2023-04-16T08:19:48.095Z,8585.3477
2023-04-16T08:20:48.758Z,7908.0435
2023-04-16T08:21:49.630Z,7563.2607
2023-04-16T08:22:50.439Z,7360.6089
2023-04-16T08:23:51.085Z,6965.8262
2023-04-16T08:24:51.763Z,7975.7827
2023-04-16T08:25:53.112Z,7893.4346
2023-04-16T08:26:53.857Z,6401.0869
2023-04-16T08:27:54.600Z,5936.8696
2023-04-16T08:28:55.232Z,6949.3477
2023-04-16T08:29:55.927Z,8601.4346
2023-04-16T08:30:56.624Z,8769.9131
2023-04-16T08:31:57.304Z,9274.3916
2023-04-16T08:32:58.001Z,9859.7393
2023-04-16T08:33:58.722Z,9829.2607
2023-04-16T08:34:59.442Z,9518.6523
2023-04-16T08:36:00.116Z,8673.1309
2023-04-16T08:37:00.761Z,10269.4785
2023-04-16T08:38:02.598Z,13526.3916
2023-04-16T08:39:03.443Z,11894.3477
2023-04-16T08:40:04.161Z,9575.0439
2023-04-16T08:41:04.802Z,9121.3916
2023-04-16T08:42:05.439Z,8560.9561
2023-04-16T08:43:06.055Z,9109.3047
2023-04-16T08:44:06.838Z,10363.1309
2023-04-16T08:45:07.444Z,9756.7822
2023-04-16T08:46:08.160Z,10886.3916
2023-04-16T08:47:08.882Z,13978.1309
2023-04-16T08:48:09.807Z,15143.8262
2023-04-16T08:49:10.700Z,15556.3916
2023-04-16T08:50:11.681Z,11690.6953
2023-04-16T08:51:12.336Z,10672.3477
2023-04-16T08:52:13.047Z,10620.7393
2023-04-16T08:53:13.699Z,10839.4785
2023-04-16T08:54:14.378Z,11288.0869
2023-04-16T08:55:15.090Z,10360.1738
2023-04-16T08:56:15.813Z,10311.9131
2023-04-16T08:57:16.484Z,10738.5215
2023-04-16T08:58:17.145Z,11256.1309
2023-04-16T08:59:17.798Z,12147.3477
2023-04-16T09:00:18.497Z,13429.2178
2023-04-16T09:01:19.347Z,13401.4346
2023-04-16T09:02:20.131Z,12548.2178
2023-04-16T09:03:21.197Z,11184.2607
2023-04-16T09:04:22.018Z,9472.8691
2023-04-16T09:05:22.789Z,9685.3047
2023-04-16T09:06:23.443Z,11194.1309
2023-04-16T09:07:24.266Z,13003.6953
2023-04-16T09:08:24.967Z,13006.2178
2023-04-16T09:09:25.654Z,12972.8262
2023-04-16T09:10:26.576Z,12407.2178
2023-04-16T09:11:27.194Z,10710.2178
2023-04-16T09:12:27.877Z,10860.5654
2023-04-16T09:13:28.515Z,11062.6084
2023-04-16T09:14:29.317Z,10307.0000
2023-04-16T09:15:29.970Z,13026.3477
2023-04-16T09:16:30.784Z,14242.6523
2023-04-16T09:17:31.450Z,13639.3916
2023-04-16T09:18:32.063Z,13832.5654
2023-04-16T09:19:32.728Z,13494.8262
2023-04-16T09:20:33.351Z,12095.5215
2023-04-16T09:21:33.987Z,11225.3477
2023-04-16T09:22:34.641Z,9904.9561
2023-04-16T09:23:35.330Z,9654.5654
2023-04-16T09:24:35.941Z,9820.2178
2023-04-16T09:25:36.926Z,10707.4785
2023-04-16T09:26:37.562Z,11570.1309
2023-04-16T09:27:38.256Z,13643.4785
2023-04-16T09:28:38.904Z,14356.4346
2023-04-16T09:29:39.600Z,13484.6084
2023-04-16T09:30:40.313Z,11827.6523
2023-04-16T09:31:40.994Z,11766.7393
2023-04-16T09:32:41.798Z,12508.6084
2023-04-16T09:33:42.450Z,12880.2178
2023-04-16T09:34:43.236Z,11535.7393
2023-04-16T09:35:43.956Z,11516.3047
2023-04-16T09:36:44.628Z,12102.4346
2023-04-16T09:37:45.284Z,10778.6084
2023-04-16T09:38:45.986Z,11879.6523
2023-04-16T09:39:46.646Z,12904.1738
2023-04-16T09:40:47.401Z,12127.5215
2023-04-16T09:41:48.224Z,10954.3916
2023-04-16T09:42:49.222Z,9287.3916
2023-04-16T09:43:49.823Z,8709.7822
2023-04-16T09:44:50.454Z,9795.9131
2023-04-16T09:45:51.260Z,11092.7393
2023-04-16T09:46:51.965Z,10980.8691
2023-04-16T09:47:52.739Z,10837.6953
2023-04-16T09:48:53.414Z,11734.2607
2023-04-16T09:49:54.923Z,11880.0439
2023-04-16T09:50:55.580Z,11059.7393
2023-04-16T09:51:56.275Z,10770.5215
2023-04-16T09:52:56.926Z,11615.4346
2023-04-16T09:53:57.614Z,11258.9561
2023-04-16T09:54:58.278Z,11194.1738
2023-04-16T09:55:59.062Z,10188.3916
2023-04-16T09:56:59.795Z,10210.2607
2023-04-16T09:58:00.503Z,10546.4346
2023-04-16T09:59:01.177Z,11055.1309
2023-04-16T10:00:01.816Z,11763.3477
2023-04-16T10:01:02.592Z,10865.6953
2023-04-16T10:02:14.600Z,10057.0439
2023-04-16T10:03:04.794Z,9565.8096
2023-04-16T10:04:05.655Z,9809.3477
2023-04-16T10:05:06.499Z,10078.6953
2023-04-16T10:06:07.171Z,10486.6953
2023-04-16T10:07:07.858Z,11424.3916
2023-04-16T10:08:08.546Z,12295.5654
2023-04-16T10:09:09.452Z,12255.3477
2023-04-16T10:10:10.510Z,11455.1738
2023-04-16T10:11:11.206Z,10929.0439
2023-04-16T10:12:12.063Z,11234.6084
2023-04-16T10:13:12.863Z,11192.0000
2023-04-16T10:14:13.617Z,9855.9131
2023-04-16T10:15:14.387Z,11060.0439
2023-04-16T10:16:15.181Z,13642.0439
2023-04-16T10:17:15.846Z,14143.8262
2023-04-16T10:18:16.521Z,12428.5654
2023-04-16T10:19:17.121Z,12033.8262
2023-04-16T10:20:17.792Z,13327.7393
2023-04-16T10:21:18.538Z,13307.6523
2023-04-16T10:22:19.168Z,14115.0869
2023-04-16T10:23:19.743Z,14273.2607
2023-04-16T10:24:20.359Z,13793.0439
2023-04-16T10:25:21.016Z,14156.6523
2023-04-16T10:26:21.677Z,13384.8691
2023-04-16T10:27:22.326Z,13352.7822
2023-04-16T10:28:23.114Z,13824.6084
2023-04-16T10:29:23.797Z,15133.3916
2023-04-16T10:30:24.519Z,15115.4785
2023-04-16T10:31:25.233Z,16423.8691
2023-04-16T10:32:26.180Z,16236.2178
2023-04-16T10:33:26.894Z,17810.0430
2023-04-16T10:34:27.545Z,19238.8691
2023-04-16T10:35:28.225Z,20079.1738
2023-04-16T10:36:28.999Z,18766.5645
2023-04-16T10:37:29.625Z,18951.5645
2023-04-16T10:38:30.339Z,20634.7383
2023-04-16T10:39:30.992Z,22736.3477
2023-04-16T10:40:31.640Z,22233.1309
2023-04-16T10:41:32.363Z,17727.9121
2023-04-16T10:42:33.063Z,18859.4355
2023-04-16T10:43:33.753Z,22707.8691
2023-04-16T10:44:34.370Z,23820.0000
2023-04-16T10:45:35.233Z,23354.2168
2023-04-16T10:46:35.992Z,23076.9121
2023-04-16T10:47:36.664Z,22142.7832
2023-04-16T10:48:48.660Z,24304.8262
2023-04-16T10:49:38.712Z,21492.1914
2023-04-16T10:50:39.587Z,19837.2168
2023-04-16T10:51:40.370Z,22231.7383
2023-04-16T10:52:41.074Z,22333.0430
2023-04-16T10:53:41.732Z,25982.6523
2023-04-16T10:54:42.398Z,27089.8262
2023-04-16T10:55:42.998Z,25054.3477
2023-04-16T10:56:43.689Z,22331.0000
2023-04-16T10:57:44.378Z,21494.1309
2023-04-16T10:58:45.019Z,20740.4785
2023-04-16T10:59:45.663Z,19000.6523
2023-04-16T11:00:46.340Z,17056.7383
2023-04-16T11:01:47.041Z,19025.4355
2023-04-16T11:02:47.833Z,20740.5215
2023-04-16T11:03:48.617Z,20171.7383
2023-04-16T11:04:50.007Z,17904.4785
2023-04-16T11:05:50.842Z,19974.9570
2023-04-16T11:06:51.532Z,17803.6953
2023-04-16T11:07:52.506Z,17016.8691
2023-04-16T11:08:54.915Z,16440.9570
2023-04-16T11:09:53.814Z,13452.7275
2023-04-16T11:10:54.487Z,15701.4346
2023-04-16T11:11:55.181Z,18049.0430
2023-04-16T11:12:55.857Z,19082.2168
2023-04-16T11:13:56.530Z,15572.0000
2023-04-16T11:14:57.198Z,11588.5215
2023-04-16T11:15:57.861Z,13717.1309
2023-04-16T11:16:58.499Z,16279.8262
2023-04-16T11:17:59.176Z,16656.3477
2023-04-16T11:18:59.810Z,18713.1738
2023-04-16T11:20:00.545Z,22108.3906
2023-04-16T11:21:01.275Z,24724.1309
2023-04-16T11:22:01.898Z,24187.9121
2023-04-16T11:23:02.579Z,22577.6953
2023-04-16T11:24:03.133Z,22950.8262
2023-04-16T11:25:03.778Z,22153.3906
2023-04-16T11:26:04.426Z,19450.6953
2023-04-16T11:27:05.176Z,16717.8691
2023-04-16T11:28:05.828Z,17803.6953
2023-04-16T11:29:06.516Z,18212.6523
2023-04-16T11:30:07.174Z,15436.0000
2023-04-16T11:31:07.861Z,11751.6523
2023-04-16T11:32:08.545Z,10939.3477
2023-04-16T11:33:09.245Z,12561.1738
2023-04-16T11:34:09.900Z,11539.4785
2023-04-16T11:35:10.547Z,10482.4785
2023-04-16T11:36:11.139Z,10690.3916
2023-04-16T11:37:11.885Z,9239.0869
2023-04-16T11:38:12.555Z,7428.1738
2023-04-16T11:39:13.229Z,7090.0869
2023-04-16T11:40:14.020Z,7958.6523
2023-04-16T11:41:14.680Z,9103.7822
2023-04-16T11:42:15.436Z,9932.0439
2023-04-16T11:43:16.179Z,9169.1309
2023-04-16T11:44:16.829Z,8174.8262
2023-04-16T11:45:17.902Z,7288.2173
2023-04-16T11:46:27.398Z,6303.3042
2023-04-16T11:47:20.271Z,5190.5239
2023-04-16T11:48:21.031Z,4815.4346
2023-04-16T11:49:21.740Z,6056.3042
2023-04-16T11:50:22.757Z,7673.2607
2023-04-16T11:51:23.810Z,9595.0000
2023-04-16T11:52:24.991Z,11401.0000